This is the latest recevied weather packets stored in our database for station/object WA5KWK. If no packets are shown the sender has not sent any weather packets the latest 10 day(s).
| Time | Temp. | Humidity | Pressure | Rain* | Wind** | Luminosity | Snow |
|---|---|---|---|---|---|---|---|
| 1777140905 | 10.56° C | 82% | 1009.7 hPa | 0 mm | - | 745 W/m² | - |
| 1777140004 | 10.56° C | 82% | 1009.6 hPa | 0 mm | - | 422 W/m² | - |
| 1777139404 | 10.56° C | 83% | 1009.7 hPa | 0 mm | - | 371 W/m² | - |
| 1777139104 | 10.56° C | 83% | 1009.5 hPa | 0 mm | - | 740 W/m² | - |
| 1777138804 | 10.56° C | 84% | 1009.5 hPa | 0 mm | - | 613 W/m² | - |
| 1777137005 | 10° C | 88% | 1009.4 hPa | 0 mm | - | 524 W/m² | - |
| 1777136704 | 9.44° C | 89% | 1009.3 hPa | 0 mm | - | 424 W/m² | - |
| 1777135504 | 8.33° C | 93% | 1009.3 hPa | 0 mm | - | 378 W/m² | - |
| 1777135205 | 8.33° C | 93% | 1009.4 hPa | 0 mm | - | 424 W/m² | - |
| 1777134905 | 8.33° C | 93% | 1009.3 hPa | 0 mm | - | 399 W/m² | - |
| 1777134604 | 7.78° C | 93% | 1009.2 hPa | 0 mm | - | 367 W/m² | - |
| 1777134005 | 7.78° C | 93% | 1009.3 hPa | 0 mm | - | 345 W/m² | - |
| 1777133704 | 7.22° C | 93% | 1009.2 hPa | 0 mm | - | 352 W/m² | - |
| 1777132204 | 7.22° C | 92% | 1009.2 hPa | 0 mm | - | 200 W/m² | - |
| 1777130704 | 7.78° C | 89% | 1009.1 hPa | 0 mm | - | 174 W/m² | - |
| 1777130405 | 7.78° C | 90% | 1009.1 hPa | 0 mm | - | 174 W/m² | - |
| 1777127704 | 6.67° C | 90% | 1008.6 hPa | 0 mm | - | 93 W/m² | - |
| 1777127408 | 6.67° C | 90% | 1008.7 hPa | 0 mm | - | 76 W/m² | - |
| 1777123805 | 7.22° C | 87% | 1008.7 hPa | 0 mm | - | 14 W/m² | - |
| 1777123505 | 7.22° C | 87% | 1008.6 hPa | 0 mm | - | 9 W/m² | - |
| 1777121405 | 10° C | 76% | 1008.7 hPa | 0 mm | - | 0 W/m² | - |
| 1777120504 | 11.11° C | 73% | 1008.4 hPa | 0 mm | - | 0 W/m² | - |
| 1777119605 | 11.11° C | 72% | 1008.4 hPa | 0 mm | - | 0 W/m² | - |
| 1777115705 | 11.11° C | 75% | 1008.9 hPa | 0 mm | - | 0 W/m² | - |
| 1777115105 | 10.56° C | 77% | 1009.1 hPa | 0 mm | - | 0 W/m² | - |
* Rain latest hour (hover to see other rain measurements)
** Current wind speed in m/s (hover to see current wind gust speed)